sensor_id;sensor_type;location;lat;lon;timestamp;temperature;humidity
21149;DHT22;10732;51.472;6.466;2023-02-28T00:00:18;-0.70;99.90
21149;DHT22;10732;51.472;6.466;2023-02-28T00:02:45;-0.80;99.90
21149;DHT22;10732;51.472;6.466;2023-02-28T00:05:13;-0.80;99.90
21149;DHT22;10732;51.472;6.466;2023-02-28T00:07:39;-0.80;99.90
21149;DHT22;10732;51.472;6.466;2023-02-28T00:10:06;-0.90;99.90
21149;DHT22;10732;51.472;6.466;2023-02-28T00:12:34;-1.00;99.90
21149;DHT22;10732;51.472;6.466;2023-02-28T00:15:00;-1.00;99.90
21149;DHT22;10732;51.472;6.466;2023-02-28T00:17:26;-1.10;99.90
21149;DHT22;10732;51.472;6.466;2023-02-28T00:19:52;-1.10;99.90
21149;DHT22;10732;51.472;6.466;2023-02-28T00:22:20;-1.10;99.90
21149;DHT22;10732;51.472;6.466;2023-02-28T00:24:46;-1.20;99.90
21149;DHT22;10732;51.472;6.466;2023-02-28T00:27:12;-1.30;99.90
21149;DHT22;10732;51.472;6.466;2023-02-28T00:29:38;-1.30;99.90
21149;DHT22;10732;51.472;6.466;2023-02-28T00:32:05;-1.30;99.90
21149;DHT22;10732;51.472;6.466;2023-02-28T00:34:31;-1.50;99.90
21149;DHT22;10732;51.472;6.466;2023-02-28T00:36:56;-1.60;99.90
21149;DHT22;10732;51.472;6.466;2023-02-28T00:39:22;-1.70;99.90
21149;DHT22;10732;51.472;6.466;2023-02-28T00:41:47;-1.80;99.90
21149;DHT22;10732;51.472;6.466;2023-02-28T00:44:13;-1.80;99.90
21149;DHT22;10732;51.472;6.466;2023-02-28T00:46:39;-1.90;99.90
21149;DHT22;10732;51.472;6.466;2023-02-28T00:49:04;-1.70;99.90
21149;DHT22;10732;51.472;6.466;2023-02-28T00:51:30;-1.70;99.90
21149;DHT22;10732;51.472;6.466;2023-02-28T00:53:55;-1.60;99.90
21149;DHT22;10732;51.472;6.466;2023-02-28T00:56:21;-1.50;99.90
21149;DHT22;10732;51.472;6.466;2023-02-28T00:58:46;-1.50;99.90
21149;DHT22;10732;51.472;6.466;2023-02-28T01:01:12;-1.50;99.90
21149;DHT22;10732;51.472;6.466;2023-02-28T01:03:38;-1.40;99.90
21149;DHT22;10732;51.472;6.466;2023-02-28T01:06:04;-1.60;99.90
21149;DHT22;10732;51.472;6.466;2023-02-28T01:08:30;-1.50;99.90
21149;DHT22;10732;51.472;6.466;2023-02-28T01:10:55;-1.50;99.90
21149;DHT22;10732;51.472;6.466;2023-02-28T01:13:21;-1.50;99.90
21149;DHT22;10732;51.472;6.466;2023-02-28T01:15:54;-1.60;99.90
21149;DHT22;10732;51.472;6.466;2023-02-28T01:18:21;-1.70;99.90
21149;DHT22;10732;51.472;6.466;2023-02-28T01:20:47;-1.80;99.90
21149;DHT22;10732;51.472;6.466;2023-02-28T01:23:13;-1.80;99.90
21149;DHT22;10732;51.472;6.466;2023-02-28T01:25:39;-1.80;99.90
21149;DHT22;10732;51.472;6.466;2023-02-28T01:28:05;-1.80;99.90
21149;DHT22;10732;51.472;6.466;2023-02-28T01:30:31;-1.70;99.90
21149;DHT22;10732;51.472;6.466;2023-02-28T01:32:57;-1.60;99.90
21149;DHT22;10732;51.472;6.466;2023-02-28T01:35:23;-1.70;99.90
21149;DHT22;10732;51.472;6.466;2023-02-28T01:37:48;-1.60;99.90
21149;DHT22;10732;51.472;6.466;2023-02-28T01:40:14;-1.50;99.90
21149;DHT22;10732;51.472;6.466;2023-02-28T01:42:39;-1.50;99.90
21149;DHT22;10732;51.472;6.466;2023-02-28T01:45:30;-1.60;99.90
21149;DHT22;10732;51.472;6.466;2023-02-28T01:47:59;-1.60;99.90
21149;DHT22;10732;51.472;6.466;2023-02-28T01:50:30;-1.60;99.90
21149;DHT22;10732;51.472;6.466;2023-02-28T01:52:59;-1.70;99.90
21149;DHT22;10732;51.472;6.466;2023-02-28T01:55:27;-1.70;99.90
21149;DHT22;10732;51.472;6.466;2023-02-28T01:57:57;-1.60;99.90
21149;DHT22;10732;51.472;6.466;2023-02-28T02:00:25;-1.80;99.90
21149;DHT22;10732;51.472;6.466;2023-02-28T02:02:55;-1.80;99.90
21149;DHT22;10732;51.472;6.466;2023-02-28T02:05:27;-1.90;99.90
21149;DHT22;10732;51.472;6.466;2023-02-28T02:07:57;-2.00;99.90
21149;DHT22;10732;51.472;6.466;2023-02-28T02:10:36;-2.00;99.90
21149;DHT22;10732;51.472;6.466;2023-02-28T02:13:33;-2.00;99.90
21149;DHT22;10732;51.472;6.466;2023-02-28T02:30:14;-2.00;99.90
21149;DHT22;10732;51.472;6.466;2023-02-28T02:35:54;-2.00;99.90
21149;DHT22;10732;51.472;6.466;2023-02-28T02:38:35;-2.10;99.90
21149;DHT22;10732;51.472;6.466;2023-02-28T02:43:48;-2.20;99.90
21149;DHT22;10732;51.472;6.466;2023-02-28T02:46:29;-2.20;99.90
21149;DHT22;10732;51.472;6.466;2023-02-28T02:48:58;-2.30;99.90
21149;DHT22;10732;51.472;6.466;2023-02-28T02:51:26;-2.40;99.90
21149;DHT22;10732;51.472;6.466;2023-02-28T02:54:40;-2.40;99.90
21149;DHT22;10732;51.472;6.466;2023-02-28T02:57:01;-2.40;99.90
21149;DHT22;10732;51.472;6.466;2023-02-28T02:59:29;-2.40;99.90
21149;DHT22;10732;51.472;6.466;2023-02-28T03:01:59;-2.50;99.90
21149;DHT22;10732;51.472;6.466;2023-02-28T03:04:28;-2.60;99.90
21149;DHT22;10732;51.472;6.466;2023-02-28T03:06:55;-2.60;99.90
21149;DHT22;10732;51.472;6.466;2023-02-28T03:09:25;-2.70;99.90
21149;DHT22;10732;51.472;6.466;2023-02-28T03:11:53;-2.80;99.90
21149;DHT22;10732;51.472;6.466;2023-02-28T03:19:52;-3.00;99.90
21149;DHT22;10732;51.472;6.466;2023-02-28T03:22:34;-3.10;99.90
21149;DHT22;10732;51.472;6.466;2023-02-28T03:25:21;-3.10;99.90
21149;DHT22;10732;51.472;6.466;2023-02-28T03:30:49;-3.30;99.90
21149;DHT22;10732;51.472;6.466;2023-02-28T03:33:21;-3.30;99.90
21149;DHT22;10732;51.472;6.466;2023-02-28T03:35:58;-3.40;99.90
21149;DHT22;10732;51.472;6.466;2023-02-28T03:38:41;-3.40;99.90
21149;DHT22;10732;51.472;6.466;2023-02-28T03:41:14;-3.40;99.90
21149;DHT22;10732;51.472;6.466;2023-02-28T03:43:45;-3.40;99.90
21149;DHT22;10732;51.472;6.466;2023-02-28T03:46:15;-3.40;99.90
21149;DHT22;10732;51.472;6.466;2023-02-28T03:48:46;-3.40;99.90
21149;DHT22;10732;51.472;6.466;2023-02-28T03:51:17;-3.40;99.90
21149;DHT22;10732;51.472;6.466;2023-02-28T03:53:56;-3.40;99.90
21149;DHT22;10732;51.472;6.466;2023-02-28T03:56:54;-3.30;99.90
21149;DHT22;10732;51.472;6.466;2023-02-28T03:59:33;-3.30;99.90
21149;DHT22;10732;51.472;6.466;2023-02-28T04:01:59;-3.30;99.90
21149;DHT22;10732;51.472;6.466;2023-02-28T04:04:25;-3.30;99.90
21149;DHT22;10732;51.472;6.466;2023-02-28T04:06:51;-3.30;99.90
21149;DHT22;10732;51.472;6.466;2023-02-28T04:09:18;-3.30;99.90
21149;DHT22;10732;51.472;6.466;2023-02-28T04:11:50;-3.30;99.90
21149;DHT22;10732;51.472;6.466;2023-02-28T04:14:17;-3.30;99.90
21149;DHT22;10732;51.472;6.466;2023-02-28T04:16:43;-3.30;99.90
21149;DHT22;10732;51.472;6.466;2023-02-28T04:19:10;-3.30;99.90
21149;DHT22;10732;51.472;6.466;2023-02-28T04:21:54;-3.40;99.90
21149;DHT22;10732;51.472;6.466;2023-02-28T04:24:23;-3.40;99.90
21149;DHT22;10732;51.472;6.466;2023-02-28T04:26:51;-3.50;99.90
21149;DHT22;10732;51.472;6.466;2023-02-28T04:29:24;-3.40;99.90
21149;DHT22;10732;51.472;6.466;2023-02-28T04:31:50;-3.40;99.90
21149;DHT22;10732;51.472;6.466;2023-02-28T04:34:16;-3.40;99.90
21149;DHT22;10732;51.472;6.466;2023-02-28T04:36:41;-3.40;99.90
21149;DHT22;10732;51.472;6.466;2023-02-28T04:39:07;-3.30;99.90
21149;DHT22;10732;51.472;6.466;2023-02-28T04:41:34;-3.20;99.90
21149;DHT22;10732;51.472;6.466;2023-02-28T04:44:00;-3.20;99.90
21149;DHT22;10732;51.472;6.466;2023-02-28T04:46:26;-3.10;99.90
21149;DHT22;10732;51.472;6.466;2023-02-28T04:48:51;-2.90;99.90
21149;DHT22;10732;51.472;6.466;2023-02-28T04:51:18;-2.80;99.90
21149;DHT22;10732;51.472;6.466;2023-02-28T04:53:44;-2.80;99.90
21149;DHT22;10732;51.472;6.466;2023-02-28T04:56:16;-2.80;99.90
21149;DHT22;10732;51.472;6.466;2023-02-28T04:58:42;-2.90;99.90
21149;DHT22;10732;51.472;6.466;2023-02-28T05:01:20;-2.80;99.90
21149;DHT22;10732;51.472;6.466;2023-02-28T05:03:46;-3.10;99.90
21149;DHT22;10732;51.472;6.466;2023-02-28T05:06:12;-3.20;99.90
21149;DHT22;10732;51.472;6.466;2023-02-28T05:08:38;-3.30;99.90
21149;DHT22;10732;51.472;6.466;2023-02-28T05:11:07;-3.40;99.90
21149;DHT22;10732;51.472;6.466;2023-02-28T05:13:33;-3.50;99.90
21149;DHT22;10732;51.472;6.466;2023-02-28T05:16:00;-3.40;99.90
21149;DHT22;10732;51.472;6.466;2023-02-28T05:18:25;-3.50;99.90
21149;DHT22;10732;51.472;6.466;2023-02-28T05:20:51;-3.60;99.90
21149;DHT22;10732;51.472;6.466;2023-02-28T05:23:17;-3.60;99.90
21149;DHT22;10732;51.472;6.466;2023-02-28T05:25:45;-3.60;99.90
21149;DHT22;10732;51.472;6.466;2023-02-28T05:28:10;-3.60;99.90
21149;DHT22;10732;51.472;6.466;2023-02-28T05:30:36;-3.70;99.90
21149;DHT22;10732;51.472;6.466;2023-02-28T05:33:01;-3.70;99.90
21149;DHT22;10732;51.472;6.466;2023-02-28T05:35:27;-3.80;99.90
21149;DHT22;10732;51.472;6.466;2023-02-28T05:37:52;-3.90;99.90
21149;DHT22;10732;51.472;6.466;2023-02-28T05:40:18;-3.90;99.90
21149;DHT22;10732;51.472;6.466;2023-02-28T05:42:46;-4.00;99.90
21149;DHT22;10732;51.472;6.466;2023-02-28T05:45:11;-4.00;99.90
21149;DHT22;10732;51.472;6.466;2023-02-28T05:47:37;-3.90;99.90
21149;DHT22;10732;51.472;6.466;2023-02-28T05:50:04;-3.90;99.90
21149;DHT22;10732;51.472;6.466;2023-02-28T05:52:30;-3.90;99.90
21149;DHT22;10732;51.472;6.466;2023-02-28T05:54:55;-3.70;99.90
21149;DHT22;10732;51.472;6.466;2023-02-28T05:57:22;-3.60;99.90
21149;DHT22;10732;51.472;6.466;2023-02-28T05:59:47;-3.40;99.90
21149;DHT22;10732;51.472;6.466;2023-02-28T06:02:14;-3.30;99.90
21149;DHT22;10732;51.472;6.466;2023-02-28T06:04:40;-3.00;99.90
21149;DHT22;10732;51.472;6.466;2023-02-28T06:07:07;-2.90;99.90
21149;DHT22;10732;51.472;6.466;2023-02-28T06:09:33;-2.80;99.90
21149;DHT22;10732;51.472;6.466;2023-02-28T06:12:00;-2.70;99.90
21149;DHT22;10732;51.472;6.466;2023-02-28T06:14:29;-2.80;99.90
21149;DHT22;10732;51.472;6.466;2023-02-28T06:16:56;-2.70;99.90
21149;DHT22;10732;51.472;6.466;2023-02-28T06:19:22;-2.60;99.90
21149;DHT22;10732;51.472;6.466;2023-02-28T06:21:51;-2.60;99.90
21149;DHT22;10732;51.472;6.466;2023-02-28T06:24:18;-2.50;99.90
21149;DHT22;10732;51.472;6.466;2023-02-28T06:26:44;-2.50;99.90
21149;DHT22;10732;51.472;6.466;2023-02-28T06:29:09;-2.50;99.90
21149;DHT22;10732;51.472;6.466;2023-02-28T06:31:35;-2.50;99.90
21149;DHT22;10732;51.472;6.466;2023-02-28T06:34:01;-2.60;99.90
21149;DHT22;10732;51.472;6.466;2023-02-28T06:36:26;-2.60;99.90
21149;DHT22;10732;51.472;6.466;2023-02-28T06:38:52;-2.60;99.90
21149;DHT22;10732;51.472;6.466;2023-02-28T06:41:23;-2.60;99.90
21149;DHT22;10732;51.472;6.466;2023-02-28T06:43:49;-2.60;99.90
21149;DHT22;10732;51.472;6.466;2023-02-28T06:46:15;-2.70;99.90
21149;DHT22;10732;51.472;6.466;2023-02-28T06:48:42;-2.70;99.90
21149;DHT22;10732;51.472;6.466;2023-02-28T06:51:14;-2.80;99.90
21149;DHT22;10732;51.472;6.466;2023-02-28T06:53:40;-2.80;99.90
21149;DHT22;10732;51.472;6.466;2023-02-28T06:56:09;-2.70;99.90
21149;DHT22;10732;51.472;6.466;2023-02-28T06:58:35;-2.70;99.90
21149;DHT22;10732;51.472;6.466;2023-02-28T07:01:01;-2.60;99.90
21149;DHT22;10732;51.472;6.466;2023-02-28T07:03:27;-2.50;99.90
21149;DHT22;10732;51.472;6.466;2023-02-28T07:05:53;-2.50;99.90
21149;DHT22;10732;51.472;6.466;2023-02-28T07:08:18;-2.40;99.90
21149;DHT22;10732;51.472;6.466;2023-02-28T07:10:44;-2.30;99.90
21149;DHT22;10732;51.472;6.466;2023-02-28T07:13:10;-2.30;99.90
21149;DHT22;10732;51.472;6.466;2023-02-28T07:15:36;-2.30;99.90
21149;DHT22;10732;51.472;6.466;2023-02-28T07:18:02;-2.20;99.90
21149;DHT22;10732;51.472;6.466;2023-02-28T07:20:28;-2.10;99.90
21149;DHT22;10732;51.472;6.466;2023-02-28T07:22:54;-2.00;99.90
21149;DHT22;10732;51.472;6.466;2023-02-28T07:25:23;-1.90;99.90
21149;DHT22;10732;51.472;6.466;2023-02-28T07:27:50;-1.80;99.90
21149;DHT22;10732;51.472;6.466;2023-02-28T07:30:16;-1.60;99.90
21149;DHT22;10732;51.472;6.466;2023-02-28T07:32:41;-1.50;99.90
21149;DHT22;10732;51.472;6.466;2023-02-28T07:35:07;-1.40;99.90
21149;DHT22;10732;51.472;6.466;2023-02-28T07:37:33;-1.30;99.90
21149;DHT22;10732;51.472;6.466;2023-02-28T07:40:06;-1.20;99.90
21149;DHT22;10732;51.472;6.466;2023-02-28T07:42:37;-1.10;99.90
21149;DHT22;10732;51.472;6.466;2023-02-28T07:45:03;-1.00;99.90
21149;DHT22;10732;51.472;6.466;2023-02-28T07:47:29;-0.90;99.90
21149;DHT22;10732;51.472;6.466;2023-02-28T07:49:56;-0.80;99.90
21149;DHT22;10732;51.472;6.466;2023-02-28T07:52:21;-0.70;99.90
21149;DHT22;10732;51.472;6.466;2023-02-28T07:54:49;-0.60;99.90
21149;DHT22;10732;51.472;6.466;2023-02-28T07:57:14;-0.50;99.90
21149;DHT22;10732;51.472;6.466;2023-02-28T07:59:40;-0.40;99.90
21149;DHT22;10732;51.472;6.466;2023-02-28T08:02:06;-0.30;99.90
21149;DHT22;10732;51.472;6.466;2023-02-28T08:04:32;-0.10;99.90
21149;DHT22;10732;51.472;6.466;2023-02-28T08:06:58;-0.10;99.90
21149;DHT22;10732;51.472;6.466;2023-02-28T08:09:24;0.10;99.90
21149;DHT22;10732;51.472;6.466;2023-02-28T08:11:50;0.20;99.90
21149;DHT22;10732;51.472;6.466;2023-02-28T08:14:15;0.30;99.90
21149;DHT22;10732;51.472;6.466;2023-02-28T08:16:41;0.60;99.90
21149;DHT22;10732;51.472;6.466;2023-02-28T08:19:08;2.30;99.90
21149;DHT22;10732;51.472;6.466;2023-02-28T08:21:37;4.10;99.90
21149;DHT22;10732;51.472;6.466;2023-02-28T08:24:02;6.30;99.90
21149;DHT22;10732;51.472;6.466;2023-02-28T08:26:28;7.60;99.90
21149;DHT22;10732;51.472;6.466;2023-02-28T08:28:54;7.90;99.90
21149;DHT22;10732;51.472;6.466;2023-02-28T08:31:20;8.40;99.90
21149;DHT22;10732;51.472;6.466;2023-02-28T08:33:46;9.30;99.90
21149;DHT22;10732;51.472;6.466;2023-02-28T08:36:13;8.90;99.90
21149;DHT22;10732;51.472;6.466;2023-02-28T08:38:40;10.50;99.90
21149;DHT22;10732;51.472;6.466;2023-02-28T08:41:07;10.70;99.90
21149;DHT22;10732;51.472;6.466;2023-02-28T08:43:35;11.40;99.90
21149;DHT22;10732;51.472;6.466;2023-02-28T08:46:00;10.00;99.90
21149;DHT22;10732;51.472;6.466;2023-02-28T08:48:28;9.60;99.90
21149;DHT22;10732;51.472;6.466;2023-02-28T08:50:58;10.20;99.90
21149;DHT22;10732;51.472;6.466;2023-02-28T08:53:24;10.80;99.90
21149;DHT22;10732;51.472;6.466;2023-02-28T08:56:01;9.50;99.90
21149;DHT22;10732;51.472;6.466;2023-02-28T08:58:27;8.40;99.90
21149;DHT22;10732;51.472;6.466;2023-02-28T09:00:53;11.30;99.90
21149;DHT22;10732;51.472;6.466;2023-02-28T09:03:19;10.10;99.90
21149;DHT22;10732;51.472;6.466;2023-02-28T09:05:56;8.70;99.90
21149;DHT22;10732;51.472;6.466;2023-02-28T09:08:23;9.50;99.90
21149;DHT22;10732;51.472;6.466;2023-02-28T09:10:48;9.30;99.90
21149;DHT22;10732;51.472;6.466;2023-02-28T09:13:14;9.50;99.90
21149;DHT22;10732;51.472;6.466;2023-02-28T09:15:39;10.20;99.90
21149;DHT22;10732;51.472;6.466;2023-02-28T09:18:05;9.30;99.90
21149;DHT22;10732;51.472;6.466;2023-02-28T09:20:31;9.90;99.90
21149;DHT22;10732;51.472;6.466;2023-02-28T09:22:56;10.10;99.90
21149;DHT22;10732;51.472;6.466;2023-02-28T09:25:22;10.90;99.90
21149;DHT22;10732;51.472;6.466;2023-02-28T09:27:47;9.90;99.90
21149;DHT22;10732;51.472;6.466;2023-02-28T09:30:14;11.50;99.90
21149;DHT22;10732;51.472;6.466;2023-02-28T09:32:40;10.50;99.90
21149;DHT22;10732;51.472;6.466;2023-02-28T09:35:06;10.10;99.90
21149;DHT22;10732;51.472;6.466;2023-02-28T09:37:31;10.60;99.90
21149;DHT22;10732;51.472;6.466;2023-02-28T09:39:57;9.20;99.90
21149;DHT22;10732;51.472;6.466;2023-02-28T09:42:33;10.40;99.90
21149;DHT22;10732;51.472;6.466;2023-02-28T09:45:02;10.20;99.90
21149;DHT22;10732;51.472;6.466;2023-02-28T09:47:35;10.90;99.90
21149;DHT22;10732;51.472;6.466;2023-02-28T09:52:53;10.40;99.90
21149;DHT22;10732;51.472;6.466;2023-02-28T09:55:28;10.90;99.90
21149;DHT22;10732;51.472;6.466;2023-02-28T09:57:55;11.20;99.90
21149;DHT22;10732;51.472;6.466;2023-02-28T10:00:32;10.40;99.90
21149;DHT22;10732;51.472;6.466;2023-02-28T10:05:54;9.20;99.90
21149;DHT22;10732;51.472;6.466;2023-02-28T10:11:00;8.80;99.90
21149;DHT22;10732;51.472;6.466;2023-02-28T10:16:14;7.70;99.90
21149;DHT22;10732;51.472;6.466;2023-02-28T10:18:47;8.10;99.90
21149;DHT22;10732;51.472;6.466;2023-02-28T10:21:20;9.40;99.90
21149;DHT22;10732;51.472;6.466;2023-02-28T10:23:48;8.80;99.90
21149;DHT22;10732;51.472;6.466;2023-02-28T10:26:17;9.20;99.90
21149;DHT22;10732;51.472;6.466;2023-02-28T10:28:43;9.20;99.90
21149;DHT22;10732;51.472;6.466;2023-02-28T10:31:18;9.80;99.90
21149;DHT22;10732;51.472;6.466;2023-02-28T10:33:44;9.10;99.90
21149;DHT22;10732;51.472;6.466;2023-02-28T10:36:19;9.30;99.90
21149;DHT22;10732;51.472;6.466;2023-02-28T10:38:46;9.40;99.90
21149;DHT22;10732;51.472;6.466;2023-02-28T10:41:26;9.60;99.90
21149;DHT22;10732;51.472;6.466;2023-02-28T10:44:12;9.50;99.90
21149;DHT22;10732;51.472;6.466;2023-02-28T10:46:40;9.90;99.90
21149;DHT22;10732;51.472;6.466;2023-02-28T10:49:33;9.40;99.90
21149;DHT22;10732;51.472;6.466;2023-02-28T10:52:00;8.40;99.90
21149;DHT22;10732;51.472;6.466;2023-02-28T10:54:34;9.20;99.90
21149;DHT22;10732;51.472;6.466;2023-02-28T10:57:22;9.30;99.90
21149;DHT22;10732;51.472;6.466;2023-02-28T11:00:11;9.90;99.90
21149;DHT22;10732;51.472;6.466;2023-02-28T11:02:38;9.60;99.90
21149;DHT22;10732;51.472;6.466;2023-02-28T11:08:15;9.20;99.90
21149;DHT22;10732;51.472;6.466;2023-02-28T11:10:46;9.30;99.90
21149;DHT22;10732;51.472;6.466;2023-02-28T11:13:20;9.50;99.90
21149;DHT22;10732;51.472;6.466;2023-02-28T11:15:54;8.90;99.90
21149;DHT22;10732;51.472;6.466;2023-02-28T11:20:53;9.60;99.90
21149;DHT22;10732;51.472;6.466;2023-02-28T11:23:20;9.10;99.90
21149;DHT22;10732;51.472;6.466;2023-02-28T11:25:52;9.30;99.90
21149;DHT22;10732;51.472;6.466;2023-02-28T11:28:36;8.70;99.90
21149;DHT22;10732;51.472;6.466;2023-02-28T11:33:46;8.40;99.90
21149;DHT22;10732;51.472;6.466;2023-02-28T11:36:18;7.80;99.90
21149;DHT22;10732;51.472;6.466;2023-02-28T11:38:44;7.50;99.90
21149;DHT22;10732;51.472;6.466;2023-02-28T11:41:22;7.60;99.90
21149;DHT22;10732;51.472;6.466;2023-02-28T11:47:08;6.40;99.90
21149;DHT22;10732;51.472;6.466;2023-02-28T11:52:40;6.50;99.90
21149;DHT22;10732;51.472;6.466;2023-02-28T11:55:14;6.70;99.90
21149;DHT22;10732;51.472;6.466;2023-02-28T12:03:45;7.30;99.90
21149;DHT22;10732;51.472;6.466;2023-02-28T12:09:23;7.60;99.90
21149;DHT22;10732;51.472;6.466;2023-02-28T12:19:48;6.30;99.90
21149;DHT22;10732;51.472;6.466;2023-02-28T12:22:22;6.20;99.90
21149;DHT22;10732;51.472;6.466;2023-02-28T12:27:27;6.10;99.90
21149;DHT22;10732;51.472;6.466;2023-02-28T12:29:59;6.20;99.90
21149;DHT22;10732;51.472;6.466;2023-02-28T12:32:36;5.90;99.90
21149;DHT22;10732;51.472;6.466;2023-02-28T12:37:55;5.90;99.90
21149;DHT22;10732;51.472;6.466;2023-02-28T12:40:25;5.80;99.90
21149;DHT22;10732;51.472;6.466;2023-02-28T12:42:58;5.70;99.90
21149;DHT22;10732;51.472;6.466;2023-02-28T12:45:31;5.80;99.90
21149;DHT22;10732;51.472;6.466;2023-02-28T12:48:07;5.70;99.90
21149;DHT22;10732;51.472;6.466;2023-02-28T12:50:34;5.80;99.90
21149;DHT22;10732;51.472;6.466;2023-02-28T12:53:31;5.80;99.90
21149;DHT22;10732;51.472;6.466;2023-02-28T12:58:41;5.70;99.90
21149;DHT22;10732;51.472;6.466;2023-02-28T13:04:21;5.70;99.90
21149;DHT22;10732;51.472;6.466;2023-02-28T13:07:20;5.90;99.90
21149;DHT22;10732;51.472;6.466;2023-02-28T13:09:56;5.90;99.90
21149;DHT22;10732;51.472;6.466;2023-02-28T13:12:23;6.00;99.90
21149;DHT22;10732;51.472;6.466;2023-02-28T13:14:50;6.20;99.90
21149;DHT22;10732;51.472;6.466;2023-02-28T13:17:20;6.00;99.90
21149;DHT22;10732;51.472;6.466;2023-02-28T13:22:44;6.00;99.90
21149;DHT22;10732;51.472;6.466;2023-02-28T13:27:53;5.90;99.90
21149;DHT22;10732;51.472;6.466;2023-02-28T13:33:35;5.90;99.90
21149;DHT22;10732;51.472;6.466;2023-02-28T13:36:26;5.70;99.90
21149;DHT22;10732;51.472;6.466;2023-02-28T13:38:57;5.80;99.90
21149;DHT22;10732;51.472;6.466;2023-02-28T13:44:06;5.80;99.90
21149;DHT22;10732;51.472;6.466;2023-02-28T13:57:36;5.60;99.90
21149;DHT22;10732;51.472;6.466;2023-02-28T14:06:28;6.00;99.90
21149;DHT22;10732;51.472;6.466;2023-02-28T14:11:32;5.90;99.90
21149;DHT22;10732;51.472;6.466;2023-02-28T14:13:58;5.90;99.90
21149;DHT22;10732;51.472;6.466;2023-02-28T14:16:35;5.90;99.90
21149;DHT22;10732;51.472;6.466;2023-02-28T14:19:24;5.80;99.90
21149;DHT22;10732;51.472;6.466;2023-02-28T14:27:49;6.10;99.90
21149;DHT22;10732;51.472;6.466;2023-02-28T14:33:31;5.90;99.90
21149;DHT22;10732;51.472;6.466;2023-02-28T14:36:14;5.90;99.90
21149;DHT22;10732;51.472;6.466;2023-02-28T14:38:57;5.80;99.90
21149;DHT22;10732;51.472;6.466;2023-02-28T14:43:51;5.60;99.90
21149;DHT22;10732;51.472;6.466;2023-02-28T14:46:18;5.60;99.90
21149;DHT22;10732;51.472;6.466;2023-02-28T14:48:49;5.70;99.90
21149;DHT22;10732;51.472;6.466;2023-02-28T14:51:20;5.60;99.90
21149;DHT22;10732;51.472;6.466;2023-02-28T14:53:51;5.70;99.90
21149;DHT22;10732;51.472;6.466;2023-02-28T14:56:20;5.60;99.90
21149;DHT22;10732;51.472;6.466;2023-02-28T14:58:52;5.70;99.90
21149;DHT22;10732;51.472;6.466;2023-02-28T15:01:21;5.70;99.90
21149;DHT22;10732;51.472;6.466;2023-02-28T15:03:48;5.40;99.90
21149;DHT22;10732;51.472;6.466;2023-02-28T15:06:21;5.40;99.90
21149;DHT22;10732;51.472;6.466;2023-02-28T15:08:48;5.50;99.90
21149;DHT22;10732;51.472;6.466;2023-02-28T15:11:32;5.50;99.90
21149;DHT22;10732;51.472;6.466;2023-02-28T15:13:57;5.50;99.90
21149;DHT22;10732;51.472;6.466;2023-02-28T15:16:31;5.50;99.90
21149;DHT22;10732;51.472;6.466;2023-02-28T15:19:00;5.40;99.90
21149;DHT22;10732;51.472;6.466;2023-02-28T15:21:31;5.40;99.90
21149;DHT22;10732;51.472;6.466;2023-02-28T15:23:59;5.40;99.90
21149;DHT22;10732;51.472;6.466;2023-02-28T15:26:30;5.40;99.90
21149;DHT22;10732;51.472;6.466;2023-02-28T15:29:12;5.50;99.90
21149;DHT22;10732;51.472;6.466;2023-02-28T15:34:36;5.40;99.90
21149;DHT22;10732;51.472;6.466;2023-02-28T15:37:24;5.40;99.90
21149;DHT22;10732;51.472;6.466;2023-02-28T15:39:50;5.30;99.90
21149;DHT22;10732;51.472;6.466;2023-02-28T15:42:20;5.30;99.90
21149;DHT22;10732;51.472;6.466;2023-02-28T15:44:46;5.10;99.90
21149;DHT22;10732;51.472;6.466;2023-02-28T15:47:27;5.20;99.90
21149;DHT22;10732;51.472;6.466;2023-02-28T15:49:58;5.20;99.90
21149;DHT22;10732;51.472;6.466;2023-02-28T15:52:37;5.10;99.90
21149;DHT22;10732;51.472;6.466;2023-02-28T15:55:20;5.10;99.90
21149;DHT22;10732;51.472;6.466;2023-02-28T15:57:50;5.00;99.90
21149;DHT22;10732;51.472;6.466;2023-02-28T16:00:20;5.00;99.90
21149;DHT22;10732;51.472;6.466;2023-02-28T16:02:46;5.00;99.90
21149;DHT22;10732;51.472;6.466;2023-02-28T16:05:20;4.90;99.90
21149;DHT22;10732;51.472;6.466;2023-02-28T16:07:56;4.90;99.90
21149;DHT22;10732;51.472;6.466;2023-02-28T16:10:24;4.80;99.90
21149;DHT22;10732;51.472;6.466;2023-02-28T16:12:53;4.70;99.90
21149;DHT22;10732;51.472;6.466;2023-02-28T16:15:27;4.70;99.90
21149;DHT22;10732;51.472;6.466;2023-02-28T16:17:54;4.60;99.90
21149;DHT22;10732;51.472;6.466;2023-02-28T16:22:46;4.60;99.90
21149;DHT22;10732;51.472;6.466;2023-02-28T16:25:13;4.60;99.90
21149;DHT22;10732;51.472;6.466;2023-02-28T16:27:40;4.50;99.90
21149;DHT22;10732;51.472;6.466;2023-02-28T16:30:07;4.50;99.90
21149;DHT22;10732;51.472;6.466;2023-02-28T16:32:36;4.50;99.90
21149;DHT22;10732;51.472;6.466;2023-02-28T16:35:02;4.50;99.90
21149;DHT22;10732;51.472;6.466;2023-02-28T16:37:28;4.40;99.90
21149;DHT22;10732;51.472;6.466;2023-02-28T16:39:53;4.40;99.90
21149;DHT22;10732;51.472;6.466;2023-02-28T16:42:23;4.30;99.90
21149;DHT22;10732;51.472;6.466;2023-02-28T16:44:51;4.30;99.90
21149;DHT22;10732;51.472;6.466;2023-02-28T16:47:18;4.20;99.90
21149;DHT22;10732;51.472;6.466;2023-02-28T16:49:44;4.20;99.90
21149;DHT22;10732;51.472;6.466;2023-02-28T16:52:31;4.20;99.90
21149;DHT22;10732;51.472;6.466;2023-02-28T16:55:28;4.20;99.90
21149;DHT22;10732;51.472;6.466;2023-02-28T17:04:38;4.00;99.90
21149;DHT22;10732;51.472;6.466;2023-02-28T17:07:03;3.90;99.90
21149;DHT22;10732;51.472;6.466;2023-02-28T17:10:00;3.90;99.90
21149;DHT22;10732;51.472;6.466;2023-02-28T17:12:34;3.80;99.90
21149;DHT22;10732;51.472;6.466;2023-02-28T17:15:00;3.70;99.90
21149;DHT22;10732;51.472;6.466;2023-02-28T17:20:52;3.60;99.90
21149;DHT22;10732;51.472;6.466;2023-02-28T17:23:21;3.60;99.90
21149;DHT22;10732;51.472;6.466;2023-02-28T17:25:47;3.70;99.90
21149;DHT22;10732;51.472;6.466;2023-02-28T17:28:33;3.60;99.90
21149;DHT22;10732;51.472;6.466;2023-02-28T17:31:08;3.50;99.90
21149;DHT22;10732;51.472;6.466;2023-02-28T17:33:34;3.40;99.90
21149;DHT22;10732;51.472;6.466;2023-02-28T17:36:00;3.30;99.90
21149;DHT22;10732;51.472;6.466;2023-02-28T17:38:35;3.30;99.90
21149;DHT22;10732;51.472;6.466;2023-02-28T17:41:02;3.20;99.90
21149;DHT22;10732;51.472;6.466;2023-02-28T17:43:29;3.10;99.90
21149;DHT22;10732;51.472;6.466;2023-02-28T17:46:02;3.00;99.90
21149;DHT22;10732;51.472;6.466;2023-02-28T17:55:52;2.80;99.90
21149;DHT22;10732;51.472;6.466;2023-02-28T17:58:23;2.80;99.90
21149;DHT22;10732;51.472;6.466;2023-02-28T18:03:57;2.70;99.90
21149;DHT22;10732;51.472;6.466;2023-02-28T18:09:36;2.60;99.90
21149;DHT22;10732;51.472;6.466;2023-02-28T18:12:05;2.60;99.90
21149;DHT22;10732;51.472;6.466;2023-02-28T18:14:37;2.50;99.90
21149;DHT22;10732;51.472;6.466;2023-02-28T18:17:05;2.50;99.90
21149;DHT22;10732;51.472;6.466;2023-02-28T18:39:44;1.70;47.20
21149;DHT22;10732;51.472;6.466;2023-02-28T18:42:19;1.70;99.90
21149;DHT22;10732;51.472;6.466;2023-02-28T18:44:46;1.70;99.90
21149;DHT22;10732;51.472;6.466;2023-02-28T18:47:33;1.70;99.90